Time;durP1;ratioP1;P1;durP2;ratioP2;P2;SDS_P1;SDS_P2;PMS_P1;PMS_P2;Temp;Humidity;BMP_temperature;BMP_pressure;BME280_temperature;BME280_humidity;BME280_pressure;Samples;Min_cycle;Max_cycle;Signal;HPM_P1;HPM_P2
2023/01/06 00:01:17;;;;;;;35.83;33.20;;;;;;;5.42;100.00;101625.53;5025615;28;20492;-49
2023/01/06 00:03:48;;;;;;;38.30;35.40;;;;;;;5.44;100.00;101623.59;5025650;28;20467;-52
2023/01/06 00:06:16;;;;;;;37.00;34.30;;;;;;;5.45;100.00;101625.25;5025940;28;20506;-49
2023/01/06 00:08:44;;;;;;;37.97;34.27;;;;;;;5.46;100.00;101611.06;5025744;28;20527;-47
2023/01/06 00:11:14;;;;;;;39.10;35.90;;;;;;;5.48;100.00;101606.47;5024012;28;20437;-50
2023/01/06 00:13:41;;;;;;;39.73;35.90;;;;;;;5.50;100.00;101610.63;5024807;28;20879;-47
2023/01/06 00:16:15;;;;;;;38.00;35.30;;;;;;;5.51;100.00;101595.59;5025657;28;20432;-48
2023/01/06 00:18:45;;;;;;;38.47;35.53;;;;;;;5.51;100.00;101595.59;5025942;28;20453;-46
2023/01/06 00:21:14;;;;;;;40.33;37.30;;;;;;;5.50;100.00;101581.53;5024984;28;20437;-51
2023/01/06 00:23:42;;;;;;;40.77;37.20;;;;;;;5.53;100.00;101586.53;5024812;28;20491;-51
2023/01/06 00:26:10;;;;;;;40.70;37.43;;;;;;;5.54;100.00;101580.28;5025180;28;20464;-50
2023/01/06 00:28:38;;;;;;;38.30;35.20;;;;;;;5.55;100.00;101579.28;5025331;28;20460;-53
2023/01/06 00:31:07;;;;;;;39.33;36.03;;;;;;;5.59;100.00;101583.31;5025691;28;20429;-46
2023/01/06 00:33:35;;;;;;;39.53;36.00;;;;;;;5.59;100.00;101564.78;5022627;28;20477;-48
2023/01/06 00:36:06;;;;;;;40.57;37.27;;;;;;;5.58;100.00;101563.13;5023869;28;20430;-47
2023/01/06 00:38:35;;;;;;;38.30;35.50;;;;;;;5.61;100.00;101559.38;5018161;28;20464;-48
2023/01/06 00:42:02;;;;;;;39.57;36.40;;;;;;;5.62;100.00;101561.03;5003187;28;20426;-48
2023/01/06 00:43:53;;;;;;;39.77;36.63;;;;;;;5.65;100.00;101563.38;5003674;28;20469;-54
2023/01/06 00:46:21;;;;;;;40.43;37.03;;;;;;;5.67;100.00;101553.50;5004869;28;20473;-48
2023/01/06 00:48:49;;;;;;;41.13;37.20;;;;;;;5.70;100.00;101547.91;5004396;28;20894;-48
2023/01/06 00:51:33;;;;;;;39.13;35.30;;;;;;;5.71;100.00;101546.91;5005199;28;20440;-50
2023/01/06 00:54:01;;;;;;;39.57;36.23;;;;;;;5.72;100.00;101543.31;5004038;28;20457;-54
2023/01/06 00:56:28;;;;;;;40.17;36.63;;;;;;;5.73;100.00;101538.84;5004962;28;20931;-49
2023/01/06 00:58:56;;;;;;;42.30;38.57;;;;;;;5.71;100.00;101524.91;5003503;28;20458;-49
2023/01/06 01:01:24;;;;;;;40.93;37.03;;;;;;;5.72;100.00;101511.53;5002919;28;20438;-47
2023/01/06 01:03:51;;;;;;;40.57;36.50;;;;;;;5.71;100.00;101517.81;5003194;28;20470;-45
2023/01/06 01:06:19;;;;;;;39.47;36.37;;;;;;;5.73;100.00;101517.69;5004056;28;20481;-48
2023/01/06 01:08:53;;;;;;;40.13;36.33;;;;;;;5.73;100.00;101502.63;5003829;28;20454;-45
2023/01/06 01:14:02;;;;;;;42.30;38.00;;;;;;;5.78;100.00;101504.84;5003356;28;20476;-46
2023/01/06 01:16:30;;;;;;;41.67;38.20;;;;;;;5.77;100.00;101504.00;5003127;28;20453;-47
2023/01/06 01:18:58;;;;;;;41.50;37.90;;;;;;;5.79;100.00;101496.75;5003536;28;20477;-51
2023/01/06 01:21:26;;;;;;;41.03;37.60;;;;;;;5.80;100.00;101492.28;5003459;28;20458;-50
2023/01/06 01:23:56;;;;;;;38.63;35.73;;;;;;;5.80;100.00;101498.41;5003736;28;20462;-48
2023/01/06 01:26:23;;;;;;;39.73;36.70;;;;;;;5.82;100.00;101493.81;5003699;28;20469;-47
2023/01/06 01:28:51;;;;;;;38.47;35.70;;;;;;;5.84;100.00;101491.84;5004080;28;20553;-51
2023/01/06 01:31:19;;;;;;;38.50;35.60;;;;;;;5.86;100.00;101489.91;5003783;28;20478;-50
2023/01/06 01:33:47;;;;;;;36.40;33.77;;;;;;;5.86;100.00;101481.97;5003802;28;20462;-46
2023/01/06 01:36:16;;;;;;;38.03;34.83;;;;;;;5.90;100.00;101485.16;5003793;28;20430;-45
2023/01/06 01:38:44;;;;;;;37.57;34.87;;;;;;;5.92;100.00;101488.47;5011120;28;20450;-48
2023/01/06 01:41:15;;;;;;;38.20;35.60;;;;;;;5.93;100.00;101475.09;5023001;28;20432;-48
2023/01/06 01:43:45;;;;;;;37.83;34.90;;;;;;;5.95;100.00;101480.25;5021720;28;20551;-45
2023/01/06 01:46:17;;;;;;;37.77;35.07;;;;;;;5.99;100.00;101481.63;5023160;28;20487;-47
2023/01/06 01:48:45;;;;;;;37.83;35.10;;;;;;;6.00;100.00;101472.72;5022630;28;20576;-49
2023/01/06 01:51:16;;;;;;;37.10;34.60;;;;;;;6.02;100.00;101465.44;5022288;28;20879;-48
2023/01/06 01:53:46;;;;;;;36.60;34.20;;;;;;;6.04;100.00;101459.00;5022595;28;20471;-51
2023/01/06 01:56:19;;;;;;;36.53;34.00;;;;;;;6.06;100.00;101459.69;5023103;28;20418;-51
2023/01/06 01:58:54;;;;;;;37.10;34.30;;;;;;;6.07;100.00;101457.88;5022772;28;20453;-47
2023/01/06 02:01:21;;;;;;;36.23;33.63;;;;;;;6.09;100.00;101451.44;5024100;28;20414;-48
2023/01/06 02:03:50;;;;;;;34.00;31.80;;;;;;;6.11;100.00;101448.66;5022584;28;20453;-47
2023/01/06 02:06:22;;;;;;;33.27;31.27;;;;;;;6.08;100.00;101441.00;5022543;28;20468;-48
2023/01/06 02:08:58;;;;;;;32.63;30.53;;;;;;;6.11;100.00;101433.59;5022899;28;20456;-48
2023/01/06 02:11:31;;;;;;;33.50;31.50;;;;;;;6.13;100.00;101433.44;5023027;28;20436;-46
2023/01/06 02:14:09;;;;;;;31.37;29.30;;;;;;;6.13;100.00;101442.22;5022403;28;20452;-48
2023/01/06 02:16:45;;;;;;;32.80;30.80;;;;;;;6.17;100.00;101433.97;5022597;28;20448;-54
2023/01/06 02:19:37;;;;;;;30.97;29.27;;;;;;;6.18;100.00;101431.19;5023888;28;21125;-49
2023/01/06 02:22:24;;;;;;;31.33;29.13;;;;;;;6.21;100.00;101422.09;5023084;28;20433;-46
2023/01/06 02:25:33;;;;;;;31.27;29.23;;;;;;;6.24;100.00;101425.28;5022176;28;20464;-50
2023/01/06 02:28:35;;;;;;;30.90;29.10;;;;;;;6.27;100.00;101410.91;4962113;29;20476;-45
2023/01/06 02:31:40;;;;;;;32.70;30.80;;;;;;;6.28;100.00;101400.13;5006568;28;20476;-51
2023/01/06 02:34:22;;;;;;;31.57;29.73;;;;;;;6.32;100.00;101398.84;5023368;28;20492;-48
2023/01/06 02:36:58;;;;;;;33.03;31.23;;;;;;;6.33;100.00;101392.56;5024079;28;20436;-48
2023/01/06 02:39:38;;;;;;;33.07;31.20;;;;;;;6.33;100.00;101392.56;5019584;28;20461;-53
2023/01/06 02:42:16;;;;;;;34.40;32.00;;;;;;;6.38;100.00;101389.47;5002873;28;20430;-48
2023/01/06 02:44:53;;;;;;;33.80;31.70;;;;;;;6.38;100.00;101378.88;5002908;28;20462;-51
2023/01/06 02:47:33;;;;;;;34.93;33.00;;;;;;;6.41;100.00;101375.91;5003300;28;20521;-48
2023/01/06 02:50:12;;;;;;;34.13;32.13;;;;;;;6.43;100.00;101369.47;5004847;28;20938;-48
2023/01/06 02:52:46;;;;;;;33.37;31.40;;;;;;;6.45;100.00;101358.72;5004120;28;20420;-51
2023/01/06 02:55:21;;;;;;;34.73;32.20;;;;;;;6.45;100.00;101359.53;5003402;28;20449;-51
2023/01/06 02:57:53;;;;;;;34.23;32.07;;;;;;;6.47;100.00;101354.09;5003542;28;20429;-51
2023/01/06 03:00:26;;;;;;;34.13;31.93;;;;;;;6.50;100.00;101340.53;5003413;28;20462;-50
2023/01/06 03:02:58;;;;;;;33.50;31.60;;;;;;;6.53;100.00;101337.59;5001794;28;20827;-48
2023/01/06 03:05:28;;;;;;;34.27;32.07;;;;;;;6.53;100.00;101337.59;5001957;28;20472;-51
2023/01/06 03:07:59;;;;;;;35.33;33.13;;;;;;;6.54;100.00;101336.59;5002383;28;20477;-51
2023/01/06 03:10:28;;;;;;;35.20;32.80;;;;;;;6.55;100.00;101341.72;5002382;28;20422;-51
2023/01/06 03:13:00;;;;;;;34.53;32.03;;;;;;;6.60;100.00;101336.78;5002059;28;20434;-47
2023/01/06 03:15:28;;;;;;;35.67;33.27;;;;;;;6.62;100.00;101326.03;5002264;28;20472;-48
2023/01/06 03:17:57;;;;;;;36.47;33.67;;;;;;;6.63;100.00;101322.41;5002340;28;20433;-48
2023/01/06 03:20:25;;;;;;;36.77;34.20;;;;;;;6.66;100.00;101322.06;5002397;28;20460;-49
2023/01/06 03:22:53;;;;;;;35.83;33.53;;;;;;;6.65;100.00;101305.38;5002880;28;20440;-49
2023/01/06 03:25:21;;;;;;;35.07;32.60;;;;;;;6.66;100.00;101307.00;5002646;28;20896;-47
2023/01/06 03:27:49;;;;;;;37.70;34.97;;;;;;;6.69;100.00;101300.56;5002160;28;20560;-45
2023/01/06 03:30:17;;;;;;;39.27;35.97;;;;;;;6.71;100.00;101305.72;5002187;28;20457;-47
2023/01/06 03:32:53;;;;;;;37.83;34.90;;;;;;;6.73;100.00;101301.91;5002623;28;20434;-45
2023/01/06 03:35:47;;;;;;;37.27;34.37;;;;;;;6.75;100.00;101289.31;5002356;28;20441;-46
2023/01/06 03:38:25;;;;;;;37.43;34.67;;;;;;;6.77;100.00;101287.38;5013554;28;20496;-48
2023/01/06 03:40:58;;;;;;;36.90;34.23;;;;;;;6.80;100.00;101287.06;5005165;28;20426;-45
2023/01/06 03:43:32;;;;;;;36.87;34.13;;;;;;;6.82;100.00;101292.19;5001971;28;20465;-45
2023/01/06 03:46:15;;;;;;;34.93;32.60;;;;;;;6.84;100.00;101279.63;5005451;28;20417;-46
2023/01/06 03:48:56;;;;;;;34.00;31.80;;;;;;;6.84;100.00;101275.13;5004946;28;20495;-46
2023/01/06 03:51:36;;;;;;;33.23;30.90;;;;;;;6.84;100.00;101261.84;5005656;28;20422;-47
2023/01/06 03:54:07;;;;;;;34.03;31.50;;;;;;;6.85;100.00;101252.09;5005009;28;21074;-48
2023/01/06 03:56:39;;;;;;;34.43;32.03;;;;;;;6.88;100.00;101260.56;5005454;28;20453;-45
2023/01/06 03:59:13;;;;;;;37.83;34.50;;;;;;;6.89;100.00;101253.44;5005559;28;20456;-48
2023/01/06 04:01:42;;;;;;;37.70;34.30;;;;;;;6.91;100.00;101248.81;5005828;28;20414;-48
2023/01/06 04:04:11;;;;;;;37.97;34.47;;;;;;;6.94;100.00;101237.88;5005289;28;20469;-47
2023/01/06 04:06:40;;;;;;;38.73;34.97;;;;;;;6.98;100.00;101241.88;5004923;28;20480;-46
2023/01/06 04:09:07;;;;;;;39.93;36.63;;;;;;;6.99;100.00;101228.44;5005874;28;20473;-46
2023/01/06 04:14:22;;;;;;;40.20;36.60;;;;;;;7.07;100.00;101232.97;5005359;28;20468;-45
2023/01/06 04:16:50;;;;;;;39.17;36.07;;;;;;;7.09;100.00;101223.84;5005265;28;20434;-47
2023/01/06 04:19:18;;;;;;;39.10;35.70;;;;;;;7.12;100.00;101217.38;5004816;28;20456;-49
2023/01/06 04:21:47;;;;;;;41.63;37.70;;;;;;;7.15;100.00;101211.75;5005280;28;20433;-46
2023/01/06 04:24:15;;;;;;;40.77;37.00;;;;;;;7.19;100.00;101213.94;5004239;28;20472;-46
2023/01/06 04:26:42;;;;;;;42.13;38.17;;;;;;;7.22;100.00;101216.25;5004600;28;20434;-48
2023/01/06 04:29:10;;;;;;;40.90;36.97;;;;;;;7.26;100.00;101218.59;5004597;28;20473;-50
2023/01/06 04:31:37;;;;;;;45.10;40.30;;;;;;;7.29;100.00;101220.91;5005306;28;20465;-46
2023/01/06 04:34:05;;;;;;;44.97;40.10;;;;;;;7.32;100.00;101215.28;5004661;28;20511;-46
2023/01/06 04:36:33;;;;;;;45.43;40.13;;;;;;;7.36;100.00;101213.94;5004962;28;20433;-44
2023/01/06 04:39:02;;;;;;;46.73;40.40;;;;;;;7.38;100.00;101206.66;5004987;28;20478;-50
2023/01/06 04:41:31;;;;;;;47.47;42.40;;;;;;;7.41;100.00;101207.13;5004419;28;20445;-46
2023/01/06 04:43:58;;;;;;;53.67;44.23;;;;;;;7.44;100.00;101193.53;5004358;28;20545;-46
2023/01/06 04:46:26;;;;;;;51.90;43.10;;;;;;;7.47;100.00;101195.88;5005055;28;20429;-45
2023/01/06 04:48:54;;;;;;;57.10;44.57;;;;;;;7.50;100.00;101189.38;5004457;28;20573;-49
2023/01/06 04:51:21;;;;;;;52.67;40.73;;;;;;;7.54;100.00;101173.00;5004802;28;20434;-48
2023/01/06 04:53:49;;;;;;;42.97;38.50;;;;;;;7.57;100.00;101171.81;5003731;28;20468;-50
2023/01/06 04:56:18;;;;;;;45.30;40.53;;;;;;;7.58;100.00;101163.72;5003430;28;20466;-50
2023/01/06 04:58:46;;;;;;;45.83;40.90;;;;;;;7.61;100.00;101157.22;5004447;28;20461;-45
2023/01/06 05:01:14;;;;;;;45.50;40.83;;;;;;;7.63;100.00;101153.41;5003874;28;20461;-46
2023/01/06 05:03:42;;;;;;;45.13;40.43;;;;;;;7.64;100.00;101149.78;5004595;28;20458;-48
2023/01/06 05:06:11;;;;;;;51.60;42.37;;;;;;;7.68;100.00;101139.63;5004816;28;20430;-53
2023/01/06 05:08:40;;;;;;;47.40;41.10;;;;;;;7.69;100.00;101136.81;5005847;28;20477;-50
2023/01/06 05:11:12;;;;;;;44.77;39.90;;;;;;;7.74;100.00;101133.63;5006296;28;20510;-49
2023/01/06 05:13:42;;;;;;;56.40;43.13;;;;;;;7.75;100.00;101137.97;5004413;28;20450;-47
2023/01/06 05:16:12;;;;;;;50.67;42.87;;;;;;;7.77;100.00;101134.13;5004912;28;20990;-46
2023/01/06 05:18:40;;;;;;;52.20;44.90;;;;;;;7.79;100.00;101126.81;5004526;28;20557;-49
2023/01/06 05:21:08;;;;;;;55.83;42.73;;;;;;;7.84;100.00;101117.53;5005239;28;20434;-50
2023/01/06 05:23:36;;;;;;;50.17;43.90;;;;;;;7.83;100.00;101111.38;5004253;28;20481;-48
2023/01/06 05:26:04;;;;;;;53.20;44.40;;;;;;;7.88;100.00;101110.88;5004931;28;20429;-46
2023/01/06 05:28:32;;;;;;;58.40;44.80;;;;;;;7.91;100.00;101113.22;5004630;28;20477;-52
2023/01/06 05:31:01;;;;;;;67.70;46.20;;;;;;;7.95;100.00;101107.38;5005608;28;20434;-49
2023/01/06 05:33:30;;;;;;;55.73;45.47;;;;;;;7.99;100.00;101102.56;5004077;28;20457;-45
2023/01/06 05:35:58;;;;;;;52.67;45.53;;;;;;;8.01;100.00;101101.38;5004046;28;20434;-47
2023/01/06 05:38:26;;;;;;;54.50;44.63;;;;;;;8.05;100.00;101096.56;5019204;28;20460;-46
2023/01/06 05:40:55;;;;;;;53.13;46.70;;;;;;;8.09;100.00;101098.72;5022685;28;20497;-46
2023/01/06 05:43:24;;;;;;;58.03;46.13;;;;;;;8.11;100.00;101094.06;5023529;28;20535;-47
2023/01/06 05:45:52;;;;;;;56.90;46.50;;;;;;;8.17;100.00;101100.50;5023937;28;20433;-48
2023/01/06 05:48:25;;;;;;;52.53;46.53;;;;;;;8.20;100.00;101085.03;5023453;28;20496;-45
2023/01/06 05:50:52;;;;;;;57.27;46.33;;;;;;;8.26;100.00;101086.19;5023514;28;20433;-46
2023/01/06 05:53:20;;;;;;;55.93;45.40;;;;;;;8.29;100.00;101075.25;5022558;28;20515;-45
2023/01/06 05:55:47;;;;;;;60.17;48.90;;;;;;;8.34;100.00;101080.84;5023381;28;20819;-47
2023/01/06 05:58:15;;;;;;;62.97;48.37;;;;;;;8.39;100.00;101080.34;5022791;28;20433;-48
2023/01/06 06:00:43;;;;;;;63.20;48.33;;;;;;;8.41;100.00;101075.66;5023078;28;20433;-51
2023/01/06 06:03:10;;;;;;;61.40;48.43;;;;;;;8.45;100.00;101075.16;5022831;28;20461;-49
2023/01/06 06:05:39;;;;;;;70.43;50.40;;;;;;;8.49;100.00;101081.75;5023130;28;20444;-52
2023/01/06 06:08:07;;;;;;;57.40;48.37;;;;;;;8.52;100.00;101067.28;5022079;28;20436;-52
2023/01/06 06:10:35;;;;;;;69.30;51.80;;;;;;;8.54;100.00;101070.63;5022085;28;20429;-47
2023/01/06 06:13:03;;;;;;;73.77;49.00;;;;;;;8.56;100.00;101071.28;5022155;28;20478;-46
2023/01/06 06:15:31;;;;;;;61.23;49.07;;;;;;;8.59;100.00;101063.78;5022772;28;20429;-46
2023/01/06 06:17:58;;;;;;;59.73;49.43;;;;;;;8.62;100.00;101060.75;5023232;28;20516;-50
2023/01/06 06:20:26;;;;;;;63.40;50.07;;;;;;;8.64;100.00;101068.56;5023299;28;20449;-46
2023/01/06 06:22:55;;;;;;;69.30;48.70;;;;;;;8.67;100.00;101065.53;5021820;28;20437;-46
2023/01/06 06:25:23;;;;;;;55.20;48.27;;;;;;;8.69;100.00;101050.25;5022797;28;20428;-46
2023/01/06 06:27:50;;;;;;;71.70;51.33;;;;;;;8.71;100.00;101058.88;5023690;28;20783;-46
2023/01/06 06:30:18;;;;;;;61.63;49.60;;;;;;;8.71;100.00;101048.25;5022461;28;20481;-48
2023/01/06 06:32:46;;;;;;;61.30;48.90;;;;;;;8.73;100.00;101051.53;5022470;28;20474;-49
2023/01/06 06:35:13;;;;;;;51.93;46.43;;;;;;;8.76;100.00;101045.88;5022304;28;20802;-46
2023/01/06 06:37:41;;;;;;;52.70;47.37;;;;;;;8.76;100.00;101041.38;5023469;28;20456;-52
2023/01/06 06:40:11;;;;;;;52.97;47.30;;;;;;;8.76;100.00;101035.22;5022554;28;20453;-48
2023/01/06 06:42:39;;;;;;;55.07;47.60;;;;;;;8.77;100.00;101032.41;5021946;28;20425;-44
2023/01/06 06:45:08;;;;;;;52.40;46.77;;;;;;;8.77;100.00;101021.78;5022147;28;20489;-46
2023/01/06 06:47:36;;;;;;;53.87;48.40;;;;;;;8.80;100.00;101013.44;5022844;28;20437;-47
2023/01/06 06:50:04;;;;;;;57.43;48.10;;;;;;;8.83;100.00;101009.59;5021418;28;20485;-47
2023/01/06 06:52:32;;;;;;;53.20;46.40;;;;;;;8.82;100.00;101008.75;5021054;28;20455;-46
2023/01/06 06:54:59;;;;;;;50.63;45.70;;;;;;;8.84;100.00;101013.91;5021096;28;20464;-46
2023/01/06 06:57:28;;;;;;;53.13;47.27;;;;;;;8.83;100.00;101002.44;5021350;28;20437;-48
2023/01/06 06:59:56;;;;;;;50.43;45.93;;;;;;;8.85;100.00;101000.44;5020586;28;20464;-49
2023/01/06 07:02:23;;;;;;;52.90;47.50;;;;;;;8.85;100.00;100996.94;5021672;28;20440;-47
2023/01/06 07:04:51;;;;;;;51.60;46.00;;;;;;;8.86;100.00;100983.47;5020978;28;20464;-50
2023/01/06 07:07:19;;;;;;;53.20;48.00;;;;;;;8.87;100.00;100994.91;5022941;28;20487;-50
2023/01/06 07:09:48;;;;;;;52.10;46.93;;;;;;;8.88;100.00;100991.25;5022115;28;20472;-48
2023/01/06 07:12:15;;;;;;;50.07;45.53;;;;;;;8.87;100.00;100979.78;5022701;28;20444;-51
2023/01/06 07:14:44;;;;;;;47.63;43.30;;;;;;;8.87;100.00;100979.78;5021352;28;20499;-47
2023/01/06 07:17:12;;;;;;;50.27;45.27;;;;;;;8.90;100.00;100973.28;5022388;28;20498;-50
2023/01/06 07:19:40;;;;;;;48.97;44.43;;;;;;;8.89;100.00;100961.00;5023705;28;20456;-45
2023/01/06 07:22:07;;;;;;;47.97;43.47;;;;;;;8.89;100.00;100961.00;5025416;28;20460;-52
2023/01/06 07:24:35;;;;;;;48.33;43.83;;;;;;;8.88;100.00;100962.84;5025934;28;20467;-51
2023/01/06 07:27:03;;;;;;;48.70;44.30;;;;;;;8.88;100.00;100952.19;5026071;28;20799;-47
2023/01/06 07:29:30;;;;;;;47.03;42.97;;;;;;;8.89;100.00;100947.72;5026231;28;20468;-49
2023/01/06 07:31:59;;;;;;;46.87;42.40;;;;;;;8.89;100.00;100931.75;5026078;28;20428;-50
2023/01/06 07:34:27;;;;;;;48.87;44.60;;;;;;;8.90;100.00;100933.38;5025448;28;20461;-49
2023/01/06 07:36:55;;;;;;;45.53;41.63;;;;;;;8.91;100.00;100935.06;5024438;28;20606;-53
2023/01/06 07:39:23;;;;;;;48.23;44.17;;;;;;;8.90;100.00;100928.91;5021317;28;20449;-46
2023/01/06 07:41:50;;;;;;;45.67;42.10;;;;;;;8.90;100.00;100926.25;5005932;28;20843;-46
2023/01/06 07:44:18;;;;;;;46.87;42.37;;;;;;;8.91;100.00;100929.72;5005415;28;20948;-47
2023/01/06 07:46:45;;;;;;;44.83;41.00;;;;;;;8.90;100.00;100928.91;5005203;28;20434;-45
2023/01/06 07:49:15;;;;;;;45.80;42.00;;;;;;;8.91;100.00;100929.72;5004388;28;20580;-46
2023/01/06 07:51:42;;;;;;;48.00;43.90;;;;;;;8.90;100.00;100923.59;5005384;28;20484;-49
2023/01/06 07:54:10;;;;;;;49.90;45.50;;;;;;;8.90;100.00;100922.75;4999123;28;20916;-45
2023/01/06 07:56:38;;;;;;;50.43;46.03;;;;;;;8.93;100.00;100924.25;5017427;28;20425;-48
2023/01/06 07:59:06;;;;;;;49.10;45.00;;;;;;;8.92;100.00;100920.75;4993337;28;20494;-47
2023/01/06 08:01:33;;;;;;;47.40;43.30;;;;;;;8.92;100.00;100917.25;4984972;28;20430;-47
2023/01/06 08:04:01;;;;;;;50.27;46.10;;;;;;;8.92;100.00;100917.25;4985150;28;20825;-49
2023/01/06 08:06:30;;;;;;;48.50;44.50;;;;;;;8.92;100.00;100907.47;4985993;28;20431;-50
2023/01/06 08:08:58;;;;;;;48.33;44.60;;;;;;;8.91;100.00;100911.13;4985860;28;20438;-47
2023/01/06 08:11:26;;;;;;;50.60;46.40;;;;;;;8.91;100.00;100911.13;4986138;28;20478;-48
2023/01/06 08:13:53;;;;;;;50.17;46.20;;;;;;;8.90;100.00;100906.78;4985636;28;20467;-49
2023/01/06 08:16:21;;;;;;;50.97;46.63;;;;;;;8.91;100.00;100916.44;4986258;28;20462;-52
2023/01/06 08:18:49;;;;;;;50.87;46.77;;;;;;;8.94;100.00;100909.91;4986222;28;20549;-49
2023/01/06 08:21:16;;;;;;;51.80;47.73;;;;;;;8.92;100.00;100912.78;4986369;28;20439;-49
2023/01/06 08:23:45;;;;;;;52.57;48.30;;;;;;;8.90;100.00;100912.09;4985859;28;20978;-45
2023/01/06 08:26:16;;;;;;;53.97;49.50;;;;;;;8.92;100.00;100915.44;4986435;28;20524;-51
2023/01/06 08:28:45;;;;;;;53.40;49.13;;;;;;;8.96;100.00;100907.94;4986352;28;20455;-45
2023/01/06 08:31:15;;;;;;;50.50;46.70;;;;;;;8.94;100.00;100915.25;4985116;28;20474;-47
2023/01/06 08:33:43;;;;;;;48.00;44.60;;;;;;;8.90;100.00;100896.97;4984099;28;20526;-52
2023/01/06 08:36:14;;;;;;;52.80;48.43;;;;;;;8.92;100.00;100898.66;4984857;28;20438;-49
2023/01/06 08:38:43;;;;;;;51.17;47.27;;;;;;;8.93;100.00;100901.09;5000222;28;20452;-46
2023/01/06 08:41:12;;;;;;;51.53;47.17;;;;;;;8.95;100.00;100908.91;5004599;28;20433;-46
2023/01/06 08:43:41;;;;;;;50.20;46.50;;;;;;;8.95;100.00;100883.16;5003851;28;20461;-49
2023/01/06 08:46:14;;;;;;;50.77;46.77;;;;;;;8.97;100.00;100898.91;5005135;28;20530;-47
2023/01/06 08:48:43;;;;;;;51.33;47.40;;;;;;;8.96;100.00;100898.09;5005898;28;20481;-50
2023/01/06 08:51:12;;;;;;;51.13;47.63;;;;;;;8.99;100.00;100910.22;5004785;28;20478;-44
2023/01/06 08:53:40;;;;;;;51.80;47.63;;;;;;;8.98;100.00;100896.09;5003769;28;20544;-48
2023/01/06 08:56:13;;;;;;;50.63;46.93;;;;;;;8.99;100.00;100878.31;5004048;28;20441;-51
2023/01/06 08:58:41;;;;;;;53.00;49.20;;;;;;;8.99;100.00;100883.63;5003879;28;20458;-45
2023/01/06 09:01:16;;;;;;;51.70;47.80;;;;;;;9.01;100.00;100878.94;5004455;28;20524;-48
2023/01/06 09:03:44;;;;;;;50.13;46.47;;;;;;;8.98;100.00;100868.66;5004372;28;20488;-48
2023/01/06 09:06:12;;;;;;;49.40;45.70;;;;;;;9.02;100.00;100884.06;5004202;28;20819;-49
2023/01/06 09:08:40;;;;;;;47.43;44.03;;;;;;;9.02;100.00;100889.38;5003637;28;21086;-49
2023/01/06 09:11:09;;;;;;;47.60;44.30;;;;;;;9.06;100.00;100890.69;5004155;28;20477;-51
2023/01/06 09:13:39;;;;;;;43.53;40.73;;;;;;;9.08;100.00;100898.50;5004145;28;20466;-49
2023/01/06 09:16:08;;;;;;;44.40;41.30;;;;;;;9.11;100.00;100906.91;5005185;28;20441;-47
2023/01/06 09:18:36;;;;;;;45.70;42.30;;;;;;;9.12;100.00;100910.41;5004222;28;20485;-45
2023/01/06 09:21:05;;;;;;;45.30;42.40;;;;;;;9.12;100.00;100916.56;5004864;28;20433;-52
2023/01/06 09:23:34;;;;;;;43.50;40.70;;;;;;;9.09;100.00;100918.75;5004425;28;20462;-51
2023/01/06 09:26:02;;;;;;;44.10;41.10;;;;;;;9.12;100.00;100932.50;5003801;28;20444;-44
2023/01/06 09:28:31;;;;;;;41.47;38.77;;;;;;;9.09;100.00;100930.22;5004214;28;20555;-46
2023/01/06 09:31:00;;;;;;;41.23;38.20;;;;;;;9.09;100.00;100932.03;5003662;28;20537;-49
2023/01/06 09:33:28;;;;;;;39.10;36.70;;;;;;;9.04;100.00;100945.91;5003785;28;21042;-45
2023/01/06 09:35:55;;;;;;;39.10;36.27;;;;;;;9.04;100.00;100953.06;5004495;28;20432;-48
2023/01/06 09:38:23;;;;;;;38.40;35.50;;;;;;;8.98;100.00;100941.31;5017147;28;20463;-47
2023/01/06 09:41:07;;;;;;;38.77;36.13;;;;;;;9.00;100.00;100955.25;5007923;28;20442;-47
2023/01/06 09:43:45;;;;;;;35.47;33.20;;;;;;;8.96;100.00;100975.22;5003709;28;20462;-46
2023/01/06 09:46:18;;;;;;;35.13;32.87;;;;;;;9.06;100.00;100967.00;5003640;28;20946;-45
2023/01/06 09:48:56;;;;;;;34.67;32.50;;;;;;;9.09;100.00;100988.75;5004143;28;20466;-48
2023/01/06 09:51:26;;;;;;;34.53;32.43;;;;;;;9.13;100.00;100987.38;5004891;28;20464;-49
2023/01/06 09:53:58;;;;;;;33.93;31.77;;;;;;;9.09;100.00;101004.72;5003588;28;20465;-45
2023/01/06 09:56:26;;;;;;;33.50;31.13;;;;;;;9.07;100.00;101008.56;5004217;28;20441;-50
2023/01/06 09:59:04;;;;;;;32.60;30.30;;;;;;;9.06;100.00;100994.44;5003254;28;20458;-49
2023/01/06 10:01:39;;;;;;;33.13;30.73;;;;;;;9.04;100.00;101008.91;5003600;28;20466;-44
2023/01/06 10:04:11;;;;;;;31.27;29.23;;;;;;;9.02;100.00;100997.63;5002528;28;20488;-48
2023/01/06 10:06:44;;;;;;;31.00;28.77;;;;;;;9.03;100.00;101009.91;5004023;28;20466;-51
2023/01/06 10:09:22;;;;;;;31.33;29.00;;;;;;;8.96;100.00;101006.34;5004489;28;20493;-49
2023/01/06 10:11:59;;;;;;;33.60;31.23;;;;;;;8.93;100.00;101009.34;5004122;28;20477;-51
2023/01/06 10:14:38;;;;;;;33.63;30.57;;;;;;;8.91;100.00;101030.81;5003341;28;20465;-49
2023/01/06 10:17:23;;;;;;;33.20;30.40;;;;;;;8.97;100.00;101042.56;5004279;28;20436;-51
2023/01/06 10:20:02;;;;;;;33.27;30.80;;;;;;;9.03;100.00;101049.81;5003913;28;20974;-50
2023/01/06 10:22:40;;;;;;;33.03;30.40;;;;;;;9.15;100.00;101054.53;5003899;28;20434;-51
2023/01/06 10:25:16;;;;;;;34.30;31.10;;;;;;;9.18;100.00;101061.31;5002267;28;20998;-49
2023/01/06 10:27:49;;;;;;;35.87;32.17;;;;;;;9.12;100.00;101046.91;5003694;28;20816;-46
2023/01/06 10:30:22;;;;;;;33.93;31.40;;;;;;;9.14;100.00;101060.84;5002870;28;20449;-49
2023/01/06 10:32:54;;;;;;;34.20;31.40;;;;;;;9.09;100.00;101063.25;5002290;28;20453;-48
2023/01/06 10:35:24;;;;;;;32.30;29.50;;;;;;;9.09;100.00;101073.03;5003592;28;20434;-51
2023/01/06 10:37:54;;;;;;;33.23;30.57;;;;;;;9.02;100.00;101061.47;5002984;28;20859;-49
2023/01/06 10:40:24;;;;;;;31.97;29.37;;;;;;;8.96;100.00;101070.19;5003008;28;20446;-47
2023/01/06 10:42:58;;;;;;;32.33;29.50;;;;;;;9.00;100.00;101068.78;5002970;28;20414;-48
2023/01/06 10:45:33;;;;;;;34.03;30.67;;;;;;;8.99;100.00;101067.97;5002840;28;20436;-49
2023/01/06 10:48:04;;;;;;;31.23;29.20;;;;;;;8.96;100.00;101070.97;5003292;28;20456;-52
2023/01/06 10:50:33;;;;;;;33.07;30.30;;;;;;;8.93;100.00;101074.00;5002365;28;20502;-52
2023/01/06 10:53:01;;;;;;;33.10;30.00;;;;;;;8.90;100.00;101075.19;5002823;28;20944;-47
2023/01/06 10:55:40;;;;;;;33.17;30.10;;;;;;;8.91;100.00;101070.69;5005677;28;20450;-49
2023/01/06 10:58:21;;;;;;;32.83;30.00;;;;;;;8.95;100.00;101074.66;5006589;28;20430;-46
2023/01/06 11:01:00;;;;;;;33.00;29.90;;;;;;;8.98;100.00;101086.78;5006380;28;20517;-45
2023/01/06 11:03:29;;;;;;;34.63;31.20;;;;;;;8.96;100.00;101081.63;5006669;28;20618;-47
2023/01/06 11:06:10;;;;;;;32.93;30.13;;;;;;;8.98;100.00;101074.31;5005886;28;20434;-48
2023/01/06 11:08:39;;;;;;;34.37;31.37;;;;;;;8.97;100.00;101075.31;5006635;28;20461;-46
2023/01/06 11:11:12;;;;;;;33.33;30.43;;;;;;;8.97;100.00;101066.50;5005353;28;20470;-48
2023/01/06 11:13:56;;;;;;;32.90;30.13;;;;;;;9.01;100.00;101063.31;5006057;28;20465;-44
2023/01/06 11:16:26;;;;;;;34.93;32.13;;;;;;;9.01;100.00;101063.31;5006665;28;20503;-49
2023/01/06 11:18:58;;;;;;;32.50;29.93;;;;;;;9.12;100.00;101075.34;5005855;28;20510;-46
2023/01/06 11:21:38;;;;;;;32.87;30.70;;;;;;;9.11;100.00;101060.41;5006996;28;20422;-52
2023/01/06 11:24:17;;;;;;;34.90;31.77;;;;;;;9.14;100.00;101068.84;5007680;28;20457;-52
2023/01/06 11:26:50;;;;;;;35.53;32.13;;;;;;;9.11;100.00;101066.53;5006576;28;20413;-45
2023/01/06 11:29:19;;;;;;;34.23;30.83;;;;;;;9.17;100.00;101067.69;5005993;28;20453;-53
2023/01/06 11:31:48;;;;;;;33.57;30.47;;;;;;;9.15;100.00;101072.34;5006332;28;20488;-45